createdAt,value
2018-09-28T03:14:00.228Z,59.10
2018-09-28T03:16:40.403Z,58.70
2018-09-28T03:19:10.605Z,59.00
2018-09-28T03:21:45.337Z,58.90
2018-09-28T04:21:17.834Z,60.30
2018-09-28T04:31:44.944Z,60.30
2018-09-28T04:34:15.343Z,59.90
2018-09-28T04:36:45.930Z,60.10
2018-09-28T04:39:17.053Z,60.50
2018-09-28T04:41:47.516Z,60.50
2018-09-28T04:44:17.868Z,60.80
2018-09-28T04:46:48.448Z,61.20
2018-09-28T04:49:18.893Z,61.50
2018-09-28T04:51:49.214Z,61.50
2018-09-28T04:54:19.672Z,61.40
2018-09-28T04:56:50.067Z,62.70
2018-09-28T04:59:20.393Z,63.00
2018-09-28T05:01:50.680Z,63.50
2018-09-28T05:04:21.036Z,63.50
2018-09-28T05:06:52.240Z,63.80
2018-09-28T05:09:22.720Z,64.30
2018-09-28T05:11:53.026Z,64.80
2018-09-28T05:14:23.431Z,64.60
2018-09-28T05:16:53.858Z,64.50
2018-09-28T05:19:24.386Z,65.20
2018-09-28T05:21:54.847Z,64.70
2018-09-28T05:24:25.231Z,65.70
2018-09-28T05:26:55.652Z,64.60
2018-09-28T05:29:26.076Z,63.90
2018-09-28T05:31:56.653Z,64.20
2018-09-28T05:34:27.025Z,64.60
2018-09-28T05:36:57.292Z,65.70
2018-09-28T05:39:27.706Z,65.30
2018-09-28T05:41:58.071Z,65.60
2018-09-28T05:44:28.457Z,66.50
2018-09-28T05:46:58.902Z,66.20
2018-09-28T05:49:29.304Z,66.50
2018-09-28T05:51:59.711Z,66.40
2018-09-28T05:54:30.091Z,67.90
2018-09-28T05:57:00.512Z,67.70
2018-09-28T05:59:35.791Z,68.00
2018-09-28T06:02:11.167Z,68.10
2018-09-28T06:04:46.615Z,68.20
2018-09-28T06:07:16.972Z,67.90
2018-09-28T06:09:47.304Z,68.30
2018-09-28T06:12:17.792Z,68.70
2018-09-28T06:14:48.264Z,68.70
2018-09-28T06:17:18.658Z,69.20
2018-09-28T06:19:49.063Z,69.70
2018-09-28T06:22:19.476Z,69.80
2018-09-28T06:24:49.841Z,69.00
2018-09-28T06:27:20.225Z,71.20
2018-09-28T06:29:50.573Z,73.40
2018-09-28T06:32:21.101Z,74.50
2018-09-28T06:34:51.659Z,76.00
2018-09-28T06:37:22.223Z,77.10
2018-09-28T06:39:52.951Z,80.40
2018-09-28T06:42:23.607Z,80.90
2018-09-28T06:44:54.008Z,79.40
2018-09-28T06:47:27.004Z,79.90
2018-09-28T06:49:59.248Z,80.00
2018-09-28T06:52:29.703Z,80.80
2018-09-28T06:55:00.205Z,80.30
2018-09-28T06:57:31.709Z,80.40
2018-09-28T07:00:02.205Z,80.30
2018-09-28T07:02:32.544Z,79.60
2018-09-28T07:05:03.173Z,78.90
2018-09-28T07:07:33.654Z,78.20
2018-09-28T07:10:04.136Z,77.90
2018-09-28T07:12:34.550Z,78.40
2018-09-28T07:15:05.307Z,77.50
2018-09-28T07:17:35.686Z,77.90
2018-09-28T07:20:12.576Z,77.40
2018-09-28T07:22:42.945Z,77.70
2018-09-28T07:25:13.310Z,77.60
2018-09-28T07:27:43.564Z,77.40
2018-09-28T07:30:13.907Z,77.60
2018-09-28T07:32:44.388Z,77.60
2018-09-28T07:35:14.791Z,77.50
2018-09-28T07:37:45.250Z,77.90
2018-09-28T07:40:15.640Z,77.10
2018-09-28T07:42:46.021Z,77.60
2018-09-28T07:45:16.316Z,77.10
2018-09-28T07:47:46.781Z,76.70
2018-09-28T07:50:17.008Z,76.50
2018-09-28T07:52:47.309Z,77.00
2018-09-28T07:55:17.632Z,76.50
2018-09-28T07:57:47.970Z,76.10
2018-09-28T08:00:18.324Z,76.20
2018-09-28T08:02:48.666Z,76.20
2018-09-28T08:05:19.268Z,76.30
2018-09-28T08:07:49.586Z,76.90
2018-09-28T08:10:20.076Z,75.50
2018-09-28T08:12:50.729Z,75.20
2018-09-28T08:15:21.165Z,74.80
2018-09-28T08:17:51.696Z,74.80
2018-09-28T08:20:22.021Z,74.20
2018-09-28T08:22:53.752Z,74.10
2018-09-28T08:25:24.098Z,73.40
2018-09-28T08:27:54.478Z,73.10
2018-09-28T08:30:24.971Z,72.80
2018-09-28T08:32:55.460Z,72.30
2018-09-28T08:35:25.740Z,71.80
2018-09-28T08:37:56.292Z,71.50
2018-09-28T08:40:26.762Z,71.00
2018-09-28T08:42:59.415Z,71.50
2018-09-28T08:45:29.832Z,70.40
2018-09-28T08:48:00.262Z,69.80
2018-09-28T08:50:30.651Z,69.70
2018-09-28T08:53:01.144Z,69.70
2018-09-28T08:55:31.821Z,69.40
2018-09-28T08:58:02.237Z,69.20
2018-09-28T09:00:32.649Z,69.10
2018-09-28T09:03:06.121Z,68.80
2018-09-28T09:05:36.659Z,68.50
2018-09-28T09:08:07.351Z,68.30
2018-09-28T09:10:37.688Z,68.10
2018-09-28T09:13:09.283Z,69.60
2018-09-28T09:15:39.789Z,69.80
2018-09-28T09:18:10.490Z,70.90
2018-09-28T09:20:40.808Z,70.80
2018-09-28T09:23:11.242Z,71.30
2018-09-28T09:25:41.676Z,70.70
2018-09-28T09:28:12.144Z,71.80
2018-09-28T09:30:42.634Z,71.00
2018-09-28T09:33:13.052Z,70.80
2018-09-28T09:35:43.536Z,70.80
2018-09-28T09:38:14.217Z,70.80
2018-09-28T09:40:44.656Z,70.60
2018-09-28T09:43:15.498Z,70.60
2018-09-28T09:45:46.193Z,70.50
2018-09-28T09:48:16.902Z,70.90
2018-09-28T09:50:47.876Z,70.70
2018-09-28T09:53:19.017Z,70.80
2018-09-28T09:55:49.460Z,70.30
2018-09-28T09:58:19.873Z,70.40
2018-09-28T10:00:55.417Z,70.30
2018-09-28T10:03:30.628Z,70.10
2018-09-28T10:06:01.105Z,69.70
2018-09-28T10:08:31.673Z,69.00
2018-09-28T10:11:01.974Z,69.00
2018-09-28T10:13:32.789Z,68.70
2018-09-28T10:16:03.306Z,67.30
2018-09-28T10:18:33.842Z,65.50
2018-09-28T10:21:04.129Z,64.00
2018-09-28T10:23:34.517Z,63.10
2018-09-28T10:26:04.920Z,62.60
2018-09-28T10:28:35.395Z,62.60
2018-09-28T10:31:05.772Z,62.20
2018-09-28T10:33:42.903Z,61.50
2018-09-28T10:36:13.270Z,61.20
2018-09-28T10:38:46.001Z,60.90
2018-09-28T10:41:16.517Z,60.90
2018-09-28T10:43:46.803Z,61.00
2018-09-28T10:46:17.166Z,61.00
2018-09-28T10:48:47.620Z,60.30
2018-09-28T10:51:17.912Z,60.00
2018-09-28T10:53:48.401Z,59.90
2018-09-28T10:56:18.740Z,59.50
2018-09-28T10:58:49.177Z,59.50
2018-09-28T11:01:19.532Z,59.60
2018-09-28T11:03:49.977Z,59.50
2018-09-28T11:06:20.208Z,58.90
2018-09-28T11:08:50.866Z,58.40
2018-09-28T11:11:21.320Z,57.90
2018-09-28T11:13:51.791Z,56.70
2018-09-28T11:16:22.185Z,55.40
2018-09-28T11:18:52.728Z,55.20
2018-09-28T11:21:23.274Z,55.40
2018-09-28T11:23:53.680Z,55.00
2018-09-28T11:26:24.113Z,54.80
2018-09-28T11:28:54.514Z,54.50
2018-09-28T11:31:24.913Z,52.80
2018-09-28T11:33:56.904Z,53.30
2018-09-28T11:36:27.292Z,52.80
2018-09-28T11:39:00.625Z,52.20
2018-09-28T11:41:32.138Z,52.40
2018-09-28T11:44:02.616Z,52.10
2018-09-28T11:46:33.039Z,51.90
2018-09-28T11:49:04.517Z,51.90
2018-09-28T11:51:35.052Z,51.20
2018-09-28T11:54:06.764Z,51.60
2018-09-28T11:56:37.073Z,52.00
2018-09-28T11:59:07.703Z,52.10
2018-09-28T12:01:37.956Z,52.20
2018-09-28T12:04:08.588Z,52.10
2018-09-28T12:06:39.128Z,52.20
2018-09-28T12:09:12.489Z,51.60
2018-09-28T12:11:45.711Z,51.20
2018-09-28T12:14:16.120Z,51.10
2018-09-28T12:16:46.528Z,50.70
2018-09-28T12:19:18.915Z,50.50
2018-09-28T12:22:04.555Z,50.10
2018-09-28T12:24:35.009Z,50.00
2018-09-28T12:27:05.261Z,49.10
2018-09-28T12:29:35.624Z,48.60
2018-09-28T12:32:06.376Z,48.10
2018-09-28T12:34:36.789Z,48.50
2018-09-28T12:37:07.184Z,48.00
2018-09-28T12:39:37.675Z,48.50
2018-09-28T12:42:08.334Z,48.90
2018-09-28T12:44:38.740Z,49.00
2018-09-28T12:47:09.184Z,49.00
2018-09-28T12:49:39.735Z,47.50
2018-09-28T12:52:10.251Z,46.40
2018-09-28T12:54:40.588Z,45.40
2018-09-28T12:57:10.874Z,45.30
2018-09-28T12:59:41.473Z,45.60
2018-09-28T13:02:11.760Z,46.70
2018-09-28T13:04:42.165Z,46.10
2018-09-28T13:07:13.532Z,46.40
2018-09-28T13:09:44.032Z,46.40
2018-09-28T13:12:14.647Z,46.20
2018-09-28T13:14:45.207Z,46.50
2018-09-28T13:17:15.677Z,46.40
2018-09-28T13:19:46.132Z,46.70
2018-09-28T13:22:16.502Z,46.20
2018-09-28T13:24:46.987Z,46.30
2018-09-28T13:27:18.413Z,46.50
2018-09-28T13:29:48.961Z,47.20
2018-09-28T13:32:19.482Z,46.70
2018-09-28T13:34:49.897Z,46.80
2018-09-28T13:37:21.320Z,46.90
2018-09-28T13:39:51.893Z,47.00
2018-09-28T13:42:22.333Z,47.00
2018-09-28T13:44:53.214Z,45.70
2018-09-28T13:47:24.112Z,44.90
2018-09-28T13:49:54.604Z,44.40
2018-09-28T13:52:25.127Z,44.70
2018-09-28T13:54:55.481Z,44.80
2018-09-28T13:57:26.081Z,44.90
2018-09-28T13:59:56.544Z,45.10
2018-09-28T14:02:26.849Z,45.70
2018-09-28T14:04:58.080Z,45.70
2018-09-28T14:07:28.951Z,44.90
2018-09-28T14:09:59.444Z,45.30
2018-09-28T14:12:30.186Z,45.60
2018-09-28T14:15:00.790Z,45.70
2018-09-28T14:17:31.533Z,45.30
2018-09-28T14:20:01.955Z,45.20
2018-09-28T14:22:35.875Z,45.30
2018-09-28T14:25:06.714Z,45.40
2018-09-28T14:27:37.099Z,45.70
2018-09-28T14:30:07.762Z,45.80
2018-09-28T14:32:38.300Z,45.70
2018-09-28T14:35:08.790Z,46.00
2018-09-28T14:37:39.320Z,46.20
2018-09-28T14:40:13.087Z,46.20
2018-09-28T14:42:43.867Z,46.30
2018-09-28T14:45:14.575Z,46.30
2018-09-28T14:47:45.297Z,46.10
2018-09-28T14:50:16.515Z,45.90
2018-09-28T14:52:55.184Z,45.90
2018-09-28T14:55:26.602Z,46.40
2018-09-28T14:57:58.013Z,46.60
2018-09-28T15:00:31.206Z,46.20
2018-09-28T15:03:02.494Z,45.80
2018-09-28T15:05:33.031Z,44.90
2018-09-28T15:08:03.349Z,45.40
2018-09-28T15:10:34.060Z,44.20
2018-09-28T15:13:07.680Z,44.00
2018-09-28T15:15:38.045Z,43.10
2018-09-28T15:18:08.956Z,42.80
2018-09-28T15:20:39.432Z,42.40
2018-09-28T15:23:09.960Z,42.70
2018-09-28T15:25:40.428Z,43.10
2018-09-28T15:28:11.084Z,43.20
2018-09-28T15:30:41.720Z,43.40
2018-09-28T15:33:12.276Z,43.60
2018-09-28T15:35:48.683Z,43.60
2018-09-28T15:38:19.309Z,43.80
2018-09-28T15:40:50.680Z,44.50
2018-09-28T15:43:21.157Z,44.90
2018-09-28T15:46:00.980Z,45.40
2018-09-28T15:48:32.784Z,45.80
2018-09-28T15:51:06.094Z,46.80
2018-09-28T15:53:36.556Z,46.80
2018-09-28T15:56:07.492Z,47.30
2018-09-28T15:58:38.139Z,47.10
2018-09-28T16:01:09.948Z,47.30
2018-09-28T16:03:40.391Z,47.30
2018-09-28T16:06:10.752Z,47.20
2018-09-28T16:08:42.393Z,47.40
2018-09-28T16:11:21.879Z,47.30
2018-09-28T16:16:45.361Z,46.60
2018-09-28T16:19:15.696Z,46.40
2018-09-28T16:21:46.340Z,46.30
2018-09-28T16:30:20.161Z,46.10
2018-09-28T16:32:50.671Z,46.00
2018-09-28T16:35:22.310Z,46.00
2018-09-28T16:37:53.198Z,46.00
2018-09-28T16:40:26.737Z,46.10
2018-09-28T16:43:05.498Z,46.30
2018-09-28T16:45:40.697Z,46.40
2018-09-28T16:48:50.176Z,46.50
2018-09-28T17:01:44.521Z,47.10
2018-09-28T17:05:02.039Z,47.10
2018-09-28T17:07:35.854Z,47.30
2018-09-28T17:10:11.811Z,47.50
2018-09-28T17:27:29.009Z,47.70
2018-09-28T17:29:59.297Z,48.10
2018-09-28T17:32:30.529Z,48.10
2018-09-28T17:35:01.506Z,48.20
2018-09-28T17:37:32.374Z,48.40
2018-09-28T17:40:03.230Z,48.40
2018-09-28T17:43:06.448Z,48.60
2018-09-28T17:46:18.998Z,48.90
2018-09-28T17:48:53.294Z,48.70
2018-09-28T17:51:24.690Z,49.30
2018-09-28T17:53:57.125Z,48.90
2018-09-28T17:56:28.553Z,48.90
2018-09-28T17:58:59.437Z,49.00
2018-09-28T18:02:00.108Z,49.10
2018-09-28T18:05:10.358Z,49.10
2018-09-28T18:07:43.377Z,49.30
2018-09-28T18:10:15.830Z,49.40
2018-09-28T18:15:47.481Z,49.50
2018-09-28T18:18:32.886Z,50.00
2018-09-28T18:21:40.813Z,49.80
2018-09-28T18:24:44.148Z,50.10
2018-09-28T18:27:44.895Z,50.20
2018-09-28T18:30:53.160Z,50.40
2018-09-28T18:33:53.740Z,50.70
2018-09-28T18:36:34.711Z,50.60
2018-09-28T18:39:11.543Z,50.70
2018-09-28T18:42:27.928Z,50.60
2018-09-28T18:45:52.036Z,50.90
2018-09-28T18:48:32.906Z,51.10
2018-09-28T18:51:11.632Z,51.20
2018-09-28T18:53:43.320Z,51.40
2018-09-28T18:56:15.134Z,51.50
2018-09-28T18:59:27.877Z,51.50
2018-09-28T19:05:34.663Z,52.00
2018-09-28T19:12:13.287Z,52.30
2018-09-28T19:15:35.079Z,52.40
2018-09-28T19:18:42.428Z,52.50
2018-09-28T19:21:49.679Z,52.60
2018-09-28T19:24:44.805Z,52.90
2018-09-28T19:27:15.422Z,52.90
2018-09-28T19:30:23.121Z,53.00
2018-09-28T19:33:42.133Z,52.90
2018-09-28T19:37:04.694Z,53.00
2018-09-28T19:40:17.675Z,53.30
2018-09-28T19:43:23.021Z,53.40
2018-09-28T19:49:26.333Z,53.10
2018-09-28T19:52:26.853Z,53.10
2018-09-28T19:55:39.710Z,53.20
2018-09-28T19:58:44.990Z,53.40
2018-09-28T20:01:44.342Z,53.40
2018-09-28T20:04:38.509Z,53.50
2018-09-28T20:07:28.887Z,53.60
2018-09-28T20:10:00.934Z,53.80
2018-09-28T20:12:34.598Z,53.70
2018-09-28T20:15:44.338Z,53.70
2018-09-28T20:18:44.648Z,53.70
2018-09-28T20:21:16.330Z,53.90
2018-09-28T20:23:47.779Z,54.30
2018-09-28T20:26:39.647Z,54.30
2018-09-28T20:29:50.723Z,54.60
2018-09-28T20:33:01.747Z,54.70
2018-09-28T20:36:18.489Z,54.70
2018-09-28T20:38:51.012Z,55.10
2018-09-28T20:41:22.335Z,55.20
2018-09-28T20:43:53.179Z,55.20
2018-09-28T20:46:24.379Z,55.30
2018-09-28T20:48:55.744Z,55.40
2018-09-28T20:51:27.267Z,55.90
2018-09-28T20:53:58.368Z,55.50
2018-09-28T20:56:29.433Z,55.40
2018-09-28T20:59:00.050Z,55.60
2018-09-28T21:01:30.359Z,55.70
2018-09-28T21:04:00.777Z,55.70
2018-09-28T21:06:31.315Z,55.70
2018-09-28T21:09:01.801Z,55.90
2018-09-28T21:11:57.087Z,56.00
2018-09-28T21:18:17.972Z,56.10
2018-09-28T21:21:00.292Z,56.20
2018-09-28T21:23:37.739Z,56.40
2018-09-28T21:26:33.626Z,56.40
2018-09-28T21:29:05.884Z,56.40
2018-09-28T21:31:37.327Z,56.40
2018-09-28T21:34:15.868Z,56.40
2018-09-28T21:37:10.006Z,56.40
2018-09-28T21:40:07.930Z,56.40
2018-09-28T21:43:10.371Z,56.40
2018-09-28T21:46:20.906Z,56.40
2018-09-28T21:49:36.789Z,55.90
2018-09-28T21:52:15.748Z,56.00
2018-09-28T21:54:53.803Z,56.40
2018-09-28T21:57:53.003Z,56.40
2018-09-28T22:01:11.814Z,56.60
2018-09-28T22:04:18.976Z,56.70
2018-09-28T22:07:24.095Z,56.80
2018-09-28T22:10:34.336Z,56.90
2018-09-28T22:13:52.261Z,57.00
2018-09-28T22:17:06.510Z,57.10
2018-09-28T22:20:10.141Z,57.20
2018-09-28T22:23:17.703Z,57.30
2018-09-28T22:25:48.267Z,57.20
2018-09-28T22:28:18.143Z,57.30
2018-09-28T22:30:48.093Z,57.40
2018-09-28T22:33:17.932Z,57.30
2018-09-28T22:35:47.825Z,57.30
2018-09-28T22:38:17.589Z,57.40
2018-09-28T22:40:47.328Z,57.30
2018-09-28T22:43:17.152Z,57.30
2018-09-28T22:45:46.880Z,57.20
2018-09-28T22:48:16.619Z,57.40
2018-09-28T22:50:46.534Z,57.50
2018-09-28T22:53:38.040Z,57.60
2018-09-28T22:56:44.514Z,57.70
2018-09-28T22:59:47.484Z,58.60
2018-09-28T23:02:52.877Z,58.70
2018-09-28T23:05:32.746Z,58.80
2018-09-28T23:08:04.437Z,58.80
2018-09-28T23:10:42.128Z,58.90
2018-09-28T23:13:50.673Z,58.70
2018-09-28T23:17:02.454Z,58.70
2018-09-28T23:20:13.041Z,58.90
2018-09-28T23:23:19.851Z,58.90
2018-09-28T23:25:58.351Z,58.90
2018-09-28T23:28:29.189Z,59.10
2018-09-28T23:34:12.082Z,59.20
2018-09-28T23:36:56.670Z,59.40
2018-09-28T23:39:37.468Z,59.40
2018-09-28T23:42:22.344Z,59.50
2018-09-28T23:48:07.157Z,59.80
2018-09-28T23:50:51.999Z,60.00
2018-09-28T23:53:32.118Z,60.00
2018-09-28T23:56:17.177Z,60.10
2018-09-28T23:59:00.301Z,59.90
